Time;durP1;ratioP1;P1;durP2;ratioP2;P2;SDS_P1;SDS_P2;PMS_P1;PMS_P2;Temp;Humidity;BMP_temperature;BMP_pressure;BME280_temperature;BME280_humidity;BME280_pressure;Samples;Min_cycle;Max_cycle;Signal;HPM_P1;HPM_P2
2022/05/18 00:02:03;;;;;;;16.60;11.98;;;;;;;-141.50;100.00;63355.56;5076805;28;20048;-83
2022/05/18 00:04:30;;;;;;;17.15;12.40;;;;;;;-141.50;100.00;63355.56;5080539;28;20071;-80
2022/05/18 00:06:59;;;;;;;18.13;14.40;;;;;;;-141.50;100.00;63355.56;5080035;28;20080;-79
2022/05/18 00:09:25;;;;;;;18.48;13.52;;;;;;;-141.50;100.00;63355.56;5079272;28;20048;-79
2022/05/18 00:11:54;;;;;;;19.95;14.13;;;;;;;-141.50;100.00;63355.56;5097765;28;20051;-80
2022/05/18 00:14:21;;;;;;;15.73;12.15;;;;;;;-141.50;100.00;63355.56;5097086;28;20471;-82
2022/05/18 00:16:47;;;;;;;17.25;13.00;;;;;;;-141.50;100.00;63355.56;5072154;28;20393;-80
2022/05/18 00:19:14;;;;;;;15.68;12.45;;;;;;;-141.50;100.00;63355.56;5076679;28;20148;-79
2022/05/18 00:21:46;;;;;;;16.02;12.13;;;;;;;-141.50;100.00;63355.56;5060384;28;20056;-83
2022/05/18 00:24:13;;;;;;;15.27;13.60;;;;;;;-141.50;100.00;63355.56;5059871;28;20511;-80
2022/05/18 00:26:40;;;;;;;15.90;13.52;;;;;;;-141.50;100.00;63355.56;5052412;28;20091;-81
2022/05/18 00:29:06;;;;;;;16.77;13.50;;;;;;;-141.50;100.00;63355.56;5053627;28;20045;-81
2022/05/18 00:31:33;;;;;;;17.63;13.50;;;;;;;-141.50;100.00;63355.56;5069504;28;20098;-81
2022/05/18 00:34:02;;;;;;;17.23;14.45;;;;;;;-141.50;100.00;63355.56;5053897;28;20051;-80
2022/05/18 00:36:29;;;;;;;17.38;14.38;;;;;;;-141.50;100.00;63355.56;5072658;28;20048;-79
2022/05/18 00:38:55;;;;;;;16.90;13.40;;;;;;;-141.50;100.00;63355.56;5055515;28;20083;-79
2022/05/18 00:41:23;;;;;;;19.20;12.80;;;;;;;-141.50;100.00;63355.56;5074355;28;20053;-82
2022/05/18 00:43:51;;;;;;;14.63;11.88;;;;;;;-141.50;100.00;63355.56;5075469;28;20144;-80
2022/05/18 00:46:17;;;;;;;16.83;12.23;;;;;;;-141.50;100.00;63355.56;5075425;28;20076;-81
2022/05/18 00:48:50;;;;;;;17.88;12.82;;;;;;;-141.50;100.00;63355.56;5062842;28;20052;-78
2022/05/18 00:51:23;;;;;;;20.10;13.07;;;;;;;-141.50;100.00;63355.56;5090795;28;20044;-78
2022/05/18 00:53:54;;;;;;;17.52;12.43;;;;;;;-141.50;100.00;63355.56;5088554;28;20063;-81
2022/05/18 00:56:33;;;;;;;16.48;12.25;;;;;;;-141.50;100.00;63355.56;5063414;28;20056;-83
2022/05/18 00:59:11;;;;;;;17.48;12.07;;;;;;;-141.50;100.00;63355.56;5062993;28;20076;-79
2022/05/18 01:01:38;;;;;;;17.17;9.95;;;;;;;-141.50;100.00;63355.56;5079684;28;20110;-80
2022/05/18 01:04:07;;;;;;;19.55;14.13;;;;;;;-141.50;100.00;63355.56;5079430;28;20117;-79
2022/05/18 01:06:50;;;;;;;18.45;14.18;;;;;;;-141.50;100.00;63355.56;5063902;28;20048;-81
2022/05/18 01:09:27;;;;;;;21.58;14.23;;;;;;;-141.50;100.00;63355.56;5081717;28;20548;-81
2022/05/18 01:11:54;;;;;;;18.48;13.32;;;;;;;-141.50;100.00;63355.56;5081498;28;20088;-80
2022/05/18 01:14:30;;;;;;;15.48;12.52;;;;;;;-141.50;100.00;63355.56;5081122;28;20106;-79
2022/05/18 01:16:57;;;;;;;16.52;11.95;;;;;;;-141.50;100.00;63355.56;5085921;28;20055;-79
2022/05/18 01:19:40;;;;;;;15.23;13.00;;;;;;;-141.50;100.00;63355.56;5080603;28;20167;-79
2022/05/18 01:22:13;;;;;;;13.40;12.00;;;;;;;-141.50;100.00;63355.56;5086080;28;20547;-80
2022/05/18 01:25:09;;;;;;;14.93;13.32;;;;;;;-141.50;100.00;63355.56;5060444;28;20079;-79
2022/05/18 01:27:37;;;;;;;13.75;12.25;;;;;;;-141.50;100.00;63355.56;5015431;28;20056;-78
2022/05/18 01:30:06;;;;;;;16.52;13.13;;;;;;;-141.50;100.00;63355.56;5073277;28;20103;-79
2022/05/18 01:32:42;;;;;;;15.57;12.10;;;;;;;-141.50;100.00;63355.56;5056099;28;20131;-82
2022/05/18 01:35:14;;;;;;;15.18;12.65;;;;;;;-141.50;100.00;63355.56;5073312;28;20059;-80
2022/05/18 01:37:41;;;;;;;13.82;11.88;;;;;;;-141.50;100.00;63355.56;5073962;28;20496;-78
2022/05/18 01:40:16;;;;;;;17.75;12.32;;;;;;;-141.50;100.00;63355.56;5074147;28;20230;-80
2022/05/18 01:42:47;;;;;;;;;;;;;;;-141.50;100.00;63355.56;5076273;28;20076;-81
2022/05/18 01:45:16;;;;;;;15.05;12.48;;;;;;;-141.50;100.00;63355.56;5059641;28;19943;-81
2022/05/18 01:47:43;;;;;;;16.20;13.68;;;;;;;-141.50;100.00;63355.56;5075369;28;20408;-80
2022/05/18 01:50:19;;;;;;;15.10;12.57;;;;;;;-141.50;100.00;63355.56;5059394;28;20048;-81
2022/05/18 01:52:45;;;;;;;;;;;;;;;-141.50;100.00;63355.56;5077670;28;20082;-78
2022/05/18 01:55:16;;;;;;;17.40;11.85;;;;;;;-141.50;100.00;63355.56;5092619;28;20145;-79
2022/05/18 01:57:44;;;;;;;16.40;13.00;;;;;;;-141.50;100.00;63355.56;5095823;28;20554;-80
2022/05/18 02:00:11;;;;;;;13.88;12.15;;;;;;;-141.50;100.00;63355.56;5090610;28;20055;-79
2022/05/18 02:02:40;;;;;;;16.50;12.20;;;;;;;-141.50;100.00;63355.56;5089753;28;20120;-79
2022/05/18 02:05:08;;;;;;;15.02;11.57;;;;;;;-141.50;100.00;63355.56;5077692;28;20055;-79
2022/05/18 02:07:35;;;;;;;13.68;11.45;;;;;;;-141.50;100.00;63355.56;5076924;28;20048;-78
2022/05/18 02:10:01;;;;;;;15.43;11.27;;;;;;;-141.50;100.00;63355.56;5080911;28;20055;-81
2022/05/18 02:12:28;;;;;;;14.13;12.07;;;;;;;-141.50;100.00;63355.56;5099864;28;20047;-81
2022/05/18 02:14:54;;;;;;;18.83;11.57;;;;;;;-141.50;100.00;63355.56;5099544;28;20059;-82
2022/05/18 02:17:22;;;;;;;15.77;12.45;;;;;;;-141.50;100.00;63355.56;5083075;28;20052;-78
2022/05/18 02:19:49;;;;;;;15.10;12.57;;;;;;;-141.50;100.00;63355.56;5073485;28;20123;-79
2022/05/18 02:22:15;;;;;;;16.13;13.18;;;;;;;-141.50;100.00;63355.56;5058710;28;20135;-80
2022/05/18 02:24:44;;;;;;;15.88;13.57;;;;;;;-141.50;100.00;63355.56;5062179;28;20087;-81
2022/05/18 02:27:11;;;;;;;15.65;13.38;;;;;;;-141.50;100.00;63355.56;5077601;28;20048;-81
2022/05/18 02:29:37;;;;;;;17.80;13.90;;;;;;;-141.50;100.00;63355.56;5075098;28;20076;-79
2022/05/18 02:32:05;;;;;;;15.02;12.45;;;;;;;-141.50;100.00;63355.56;5075016;28;20544;-78
2022/05/18 02:34:31;;;;;;;12.40;10.40;;;;;;;-141.50;100.00;63355.56;5063980;28;20056;-77
2022/05/18 02:36:58;;;;;;;15.93;11.00;;;;;;;-141.50;100.00;63355.56;5076749;28;20044;-77
2022/05/18 02:39:24;;;;;;;15.55;11.20;;;;;;;-141.50;100.00;63355.56;5094311;28;20067;-77
2022/05/18 02:41:51;;;;;;;16.27;12.80;;;;;;;-141.50;100.00;63355.56;5092094;28;20044;-80
2022/05/18 02:44:18;;;;;;;14.27;12.23;;;;;;;-141.50;100.00;63355.56;5058747;28;20087;-82
2022/05/18 02:46:54;;;;;;;14.63;11.80;;;;;;;-141.50;100.00;63355.56;5062285;28;20063;-80
2022/05/18 02:49:23;;;;;;;15.90;11.80;;;;;;;-141.50;100.00;63355.56;5080356;28;20071;-81
2022/05/18 02:51:52;;;;;;;14.07;11.20;;;;;;;-141.50;100.00;63355.56;5078992;28;20084;-79
2022/05/18 02:57:08;;;;;;;16.88;10.48;;;;;;;-141.50;100.00;63355.56;5080673;28;20082;-81
2022/05/18 02:59:38;;;;;;;18.70;12.55;;;;;;;-141.50;100.00;63355.56;5080943;28;20044;-78
2022/05/18 03:02:04;;;;;;;17.25;12.93;;;;;;;-141.50;100.00;63355.56;5068211;28;20044;-77
2022/05/18 03:04:31;;;;;;;18.10;12.15;;;;;;;-141.50;100.00;63355.56;5083547;28;20143;-79
2022/05/18 03:06:59;;;;;;;14.65;13.00;;;;;;;-141.50;100.00;63355.56;5066883;28;20064;-78
2022/05/18 03:09:26;;;;;;;20.85;13.60;;;;;;;-141.50;100.00;63355.56;5075990;28;20106;-79
2022/05/18 03:11:52;;;;;;;15.32;12.90;;;;;;;-141.50;100.00;63355.56;5072629;28;20072;-79
2022/05/18 03:14:18;;;;;;;12.95;11.15;;;;;;;-141.50;100.00;63355.56;5078206;28;20053;-79
2022/05/18 03:16:45;;;;;;;14.18;10.85;;;;;;;-141.50;100.00;63355.56;5086359;28;20044;-78
2022/05/18 03:19:14;;;;;;;15.50;11.63;;;;;;;-141.50;100.00;63355.56;5099175;28;20087;-81
2022/05/18 03:24:27;;;;;;;14.82;11.60;;;;;;;-141.50;100.00;63355.56;5098725;28;20044;-83
2022/05/18 03:26:54;;;;;;;20.85;11.65;;;;;;;-141.50;100.00;63355.56;5080804;28;20048;-80
2022/05/18 03:29:21;;;;;;;15.95;11.05;;;;;;;-141.50;100.00;63355.56;5099154;28;20135;-81
2022/05/18 03:31:48;;;;;;;14.60;11.45;;;;;;;-141.50;100.00;63355.56;5079109;28;20078;-79
2022/05/18 03:34:15;;;;;;;19.08;13.82;;;;;;;-141.50;100.00;63355.56;5087760;28;20140;-82
2022/05/18 03:36:42;;;;;;;16.30;12.85;;;;;;;-141.50;100.00;63355.56;5077557;28;20045;-80
2022/05/18 03:39:08;;;;;;;19.17;13.10;;;;;;;-141.50;100.00;63355.56;5081193;28;20060;-78
2022/05/18 03:41:35;;;;;;;21.48;15.73;;;;;;;-141.50;100.00;63355.56;5070976;28;20099;-79
2022/05/18 03:44:06;;;;;;;18.17;13.82;;;;;;;-141.50;100.00;63355.56;5073291;28;20104;-80
2022/05/18 03:46:33;;;;;;;18.58;12.90;;;;;;;-141.50;100.00;63355.56;5074701;28;20076;-79
2022/05/18 03:49:02;;;;;;;18.52;13.65;;;;;;;-141.50;100.00;63355.56;5076944;28;20436;-79
2022/05/18 03:51:29;;;;;;;18.33;14.68;;;;;;;-141.50;100.00;63355.56;5077859;28;20105;-77
2022/05/18 03:53:56;;;;;;;22.05;15.27;;;;;;;-141.50;100.00;63355.56;5076620;28;20049;-79
2022/05/18 03:56:24;;;;;;;27.13;19.95;;;;;;;-141.50;100.00;63355.56;5092581;28;20071;-78
2022/05/18 03:58:51;;;;;;;25.90;18.63;;;;;;;-141.50;100.00;63355.56;5077163;28;20076;-77
2022/05/18 04:01:17;;;;;;;28.60;18.42;;;;;;;-141.50;100.00;63355.56;5093662;28;20128;-79
2022/05/18 04:03:45;;;;;;;31.15;20.67;;;;;;;-141.50;100.00;63355.56;5093446;28;20242;-76
2022/05/18 04:06:13;;;;;;;33.40;21.48;;;;;;;-141.50;100.00;63355.56;5075574;28;20424;-79
2022/05/18 04:08:41;;;;;;;28.02;20.27;;;;;;;-141.50;100.00;63355.56;5077471;28;20056;-78
2022/05/18 04:11:08;;;;;;;29.50;21.73;;;;;;;-141.50;100.00;63355.56;5095869;28;20449;-76
2022/05/18 04:13:35;;;;;;;45.00;30.35;;;;;;;-141.50;100.00;63355.56;5095113;28;20421;-77
2022/05/18 04:16:01;;;;;;;43.55;29.85;;;;;;;-141.50;100.00;63355.56;5077086;28;20101;-76
2022/05/18 04:18:32;;;;;;;48.05;32.25;;;;;;;-141.50;100.00;63355.56;5077821;28;20048;-77
2022/05/18 04:21:00;;;;;;;40.20;28.10;;;;;;;-141.50;100.00;63355.56;5079539;28;20110;-78
2022/05/18 04:23:27;;;;;;;48.30;30.73;;;;;;;-141.50;100.00;63355.56;5063348;28;20148;-76
2022/05/18 04:25:53;;;;;;;44.25;28.77;;;;;;;-141.50;100.00;63355.56;5077814;28;20052;-78
2022/05/18 04:28:20;;;;;;;43.13;28.63;;;;;;;-141.50;100.00;63355.56;5076161;28;20052;-80
2022/05/18 04:30:48;;;;;;;39.28;27.30;;;;;;;-141.50;100.00;63355.56;5075995;28;20049;-78
2022/05/18 04:33:18;;;;;;;37.05;25.83;;;;;;;-141.50;100.00;63355.56;5058005;28;20048;-79
2022/05/18 04:35:46;;;;;;;39.20;24.98;;;;;;;-141.50;100.00;63355.56;5057546;28;20484;-81
2022/05/18 04:38:13;;;;;;;33.22;22.83;;;;;;;-141.50;100.00;63355.56;5059287;28;20052;-78
2022/05/18 04:40:44;;;;;;;32.53;22.55;;;;;;;-141.50;100.00;63355.56;5070867;28;20053;-80
2022/05/18 04:43:16;;;;;;;35.42;23.13;;;;;;;-141.50;100.00;63355.56;5071835;28;20080;-79
2022/05/18 04:45:46;;;;;;;31.48;22.48;;;;;;;-141.50;100.00;63355.56;5078083;28;20140;-78
2022/05/18 04:48:17;;;;;;;37.38;23.52;;;;;;;-141.50;100.00;63355.56;5087740;28;20444;-77
2022/05/18 04:50:50;;;;;;;35.38;24.13;;;;;;;-141.50;100.00;63355.56;5060848;28;20052;-80
2022/05/18 04:53:18;;;;;;;33.08;22.65;;;;;;;-141.50;100.00;63355.56;5088399;28;20044;-80
2022/05/18 04:55:45;;;;;;;32.00;22.67;;;;;;;-141.50;100.00;63355.56;5085074;28;20056;-78
2022/05/18 04:58:11;;;;;;;33.42;23.17;;;;;;;-141.50;100.00;63355.56;5085228;28;20045;-80
2022/05/18 05:00:39;;;;;;;31.73;23.35;;;;;;;-141.50;100.00;63355.56;5085183;28;20048;-82
2022/05/18 05:03:05;;;;;;;33.17;21.92;;;;;;;-141.50;100.00;63355.56;5062346;28;20057;-80
2022/05/18 05:05:32;;;;;;;35.95;22.92;;;;;;;-141.50;100.00;63355.56;5058746;28;20098;-79
2022/05/18 05:07:59;;;;;;;32.10;22.13;;;;;;;-141.50;100.00;63355.56;5076201;28;20527;-81
2022/05/18 05:10:25;;;;;;;34.08;21.80;;;;;;;-141.50;100.00;63355.56;5076571;28;20091;-78
2022/05/18 05:12:52;;;;;;;32.08;21.55;;;;;;;-141.50;100.00;63355.56;5057227;28;20539;-79
2022/05/18 05:15:20;;;;;;;27.17;20.63;;;;;;;-141.50;100.00;63355.56;5057016;28;20136;-79
2022/05/18 05:17:47;;;;;;;23.58;16.83;;;;;;;-141.50;100.00;63355.56;5075674;28;20060;-81
2022/05/18 05:20:13;;;;;;;26.13;16.15;;;;;;;-141.50;100.00;63355.56;5097624;28;20060;-80
2022/05/18 05:22:40;;;;;;;22.70;14.93;;;;;;;-141.50;100.00;63355.56;5095683;28;20048;-80
2022/05/18 05:25:07;;;;;;;20.73;13.88;;;;;;;-141.50;100.00;63355.56;5097893;28;20504;-80
2022/05/18 05:27:34;;;;;;;21.55;13.27;;;;;;;-141.50;100.00;63355.56;5080361;28;20060;-78
2022/05/18 05:30:03;;;;;;;17.88;13.23;;;;;;;-141.50;100.00;63355.56;5079641;28;20324;-81
2022/05/18 05:32:29;;;;;;;22.85;12.77;;;;;;;-141.50;100.00;63355.56;5080639;28;20500;-80
2022/05/18 05:34:56;;;;;;;18.40;12.07;;;;;;;-141.50;100.00;63355.56;5100913;28;20044;-81
2022/05/18 05:37:22;;;;;;;18.70;11.50;;;;;;;-141.50;100.00;63355.56;5099021;28;20080;-79
2022/05/18 05:39:49;;;;;;;16.08;11.77;;;;;;;-141.50;100.00;63355.56;5074007;28;20085;-78
2022/05/18 05:42:16;;;;;;;23.92;12.20;;;;;;;-141.50;100.00;63355.56;5091524;28;20083;-80
2022/05/18 05:44:43;;;;;;;19.98;12.88;;;;;;;-141.50;100.00;63355.56;5092992;28;20113;-81
2022/05/18 05:47:11;;;;;;;24.45;13.63;;;;;;;-141.50;100.00;63355.56;5078991;28;20086;-80
2022/05/18 05:49:42;;;;;;;19.05;12.68;;;;;;;-141.50;100.00;63355.56;5080851;28;20727;-81
2022/05/18 05:52:09;;;;;;;17.90;11.98;;;;;;;-141.50;100.00;63355.56;5099657;28;20048;-77
2022/05/18 05:54:36;;;;;;;19.13;11.93;;;;;;;-141.50;100.00;63355.56;5088999;28;20068;-78
2022/05/18 05:57:04;;;;;;;16.38;10.80;;;;;;;-141.50;100.00;63355.56;5110498;28;20048;-77
2022/05/18 05:59:33;;;;;;;18.17;11.52;;;;;;;-141.50;100.00;63355.56;5089791;28;20052;-78
2022/05/18 06:02:07;;;;;;;18.95;10.60;;;;;;;-141.50;100.00;63355.56;5103648;28;20048;-78
2022/05/18 06:04:36;;;;;;;16.13;10.00;;;;;;;-141.50;100.00;63355.56;5101392;28;20056;-79
2022/05/18 06:07:03;;;;;;;15.73;9.73;;;;;;;-141.50;100.00;63355.56;5073724;28;20040;-79
2022/05/18 06:09:30;;;;;;;14.23;9.55;;;;;;;-141.50;100.00;63355.56;5079742;28;20578;-79
2022/05/18 06:11:56;;;;;;;18.55;9.80;;;;;;;-141.50;100.00;63355.56;5061885;28;20136;-80
2022/05/18 06:14:23;;;;;;;15.82;9.50;;;;;;;-141.50;100.00;63355.56;5080956;28;20067;-80
2022/05/18 06:16:49;;;;;;;12.85;8.98;;;;;;;-141.50;100.00;63355.56;5069730;28;20048;-80
2022/05/18 06:19:17;;;;;;;15.15;7.95;;;;;;;-141.50;100.00;63355.56;5082701;28;20480;-79
2022/05/18 06:21:44;;;;;;;11.45;7.35;;;;;;;-141.50;100.00;63355.56;5099777;28;20079;-81
2022/05/18 06:24:10;;;;;;;12.75;5.97;;;;;;;-141.50;100.00;63355.56;5082234;28;20048;-79
2022/05/18 06:26:40;;;;;;;13.35;7.65;;;;;;;-141.50;100.00;63355.56;5100159;28;20072;-80
2022/05/18 06:29:10;;;;;;;15.38;7.82;;;;;;;-141.50;100.00;63355.56;5097108;28;20048;-78
2022/05/18 06:31:36;;;;;;;13.15;6.43;;;;;;;-141.50;100.00;63355.56;5083047;28;20742;-79
2022/05/18 06:34:05;;;;;;;11.60;6.10;;;;;;;-141.50;100.00;63355.56;5067140;28;20054;-80
2022/05/18 06:36:34;;;;;;;11.55;6.90;;;;;;;-141.50;100.00;63355.56;5081857;28;20071;-80
2022/05/18 06:39:01;;;;;;;11.48;5.30;;;;;;;-141.50;100.00;63355.56;5086350;28;20384;-78
2022/05/18 06:41:34;;;;;;;11.88;5.70;;;;;;;-141.50;100.00;63355.56;5075729;28;20051;-80
2022/05/18 06:44:03;;;;;;;13.57;5.55;;;;;;;-141.50;100.00;63355.56;5095134;28;20158;-79
2022/05/18 06:46:35;;;;;;;9.40;5.30;;;;;;;-141.50;100.00;63355.56;5096780;28;20052;-79
2022/05/18 06:49:03;;;;;;;11.20;5.10;;;;;;;-141.50;100.00;63355.56;5098828;28;20496;-77
2022/05/18 06:51:33;;;;;;;11.40;4.93;;;;;;;-141.50;100.00;63355.56;5080576;28;20101;-76
2022/05/18 06:53:59;;;;;;;8.75;5.03;;;;;;;-141.50;100.00;63355.56;5081510;28;20090;-78
2022/05/18 06:56:29;;;;;;;10.40;3.97;;;;;;;-141.50;100.00;63355.56;5098645;28;20109;-80
2022/05/18 06:58:56;;;;;;;9.57;3.40;;;;;;;-141.50;100.00;63355.56;5098858;28;20071;-80
2022/05/18 07:01:23;;;;;;;10.07;2.80;;;;;;;-141.50;100.00;63355.56;5101485;28;20059;-78
2022/05/18 07:03:51;;;;;;;8.75;3.20;;;;;;;-141.50;100.00;63355.56;5104298;28;20128;-80
2022/05/18 07:06:28;;;;;;;6.25;2.90;;;;;;;-141.50;100.00;63355.56;5082146;28;20063;-82
2022/05/18 07:08:58;;;;;;;7.10;2.80;;;;;;;-141.50;100.00;63355.56;5079213;28;20392;-78
2022/05/18 07:11:27;;;;;;;6.45;2.70;;;;;;;-141.50;100.00;63355.56;5080220;28;20063;-78
2022/05/18 07:13:55;;;;;;;5.80;2.58;;;;;;;-141.50;100.00;63355.56;5098644;28;20040;-78
2022/05/18 07:16:23;;;;;;;6.25;2.60;;;;;;;-141.50;100.00;63355.56;5099532;28;20059;-79
2022/05/18 07:18:52;;;;;;;10.93;2.63;;;;;;;-141.50;100.00;63355.56;5080590;28;20062;-78
2022/05/18 07:21:20;;;;;;;6.07;2.33;;;;;;;-141.50;100.00;63355.56;5098040;28;20063;-78
2022/05/18 07:23:49;;;;;;;6.40;2.30;;;;;;;-141.50;100.00;63355.56;5081461;28;20044;-77
2022/05/18 07:26:20;;;;;;;7.35;2.50;;;;;;;-141.50;100.00;63355.56;5099486;28;20048;-79
2022/05/18 07:28:47;;;;;;;6.07;2.03;;;;;;;-141.50;100.00;63355.56;5107741;28;20096;-76
2022/05/18 07:31:15;;;;;;;4.00;2.17;;;;;;;-141.50;100.00;63355.56;5108784;28;20070;-78
2022/05/18 07:34:01;;;;;;;9.15;2.60;;;;;;;-141.50;100.00;63355.56;5104828;28;20163;-77
2022/05/18 07:36:29;;;;;;;9.10;2.22;;;;;;;-141.50;100.00;63355.56;5104159;28;20052;-77
2022/05/18 07:38:55;;;;;;;3.40;2.00;;;;;;;-141.50;100.00;63355.56;5101386;28;20506;-77
2022/05/18 07:41:22;;;;;;;5.55;2.10;;;;;;;-141.50;100.00;63355.56;5074989;28;20321;-77
2022/05/18 07:43:48;;;;;;;3.85;2.10;;;;;;;-141.50;100.00;63355.56;5075918;28;20048;-79
2022/05/18 07:46:15;;;;;;;9.65;2.50;;;;;;;-141.50;100.00;63355.56;5095702;28;20052;-78
2022/05/18 07:48:42;;;;;;;8.35;2.38;;;;;;;-141.50;100.00;63355.56;5097603;28;20047;-79
2022/05/18 07:51:10;;;;;;;10.27;2.45;;;;;;;-141.50;100.00;63355.56;5099149;28;20491;-79
2022/05/18 07:53:36;;;;;;;10.38;2.60;;;;;;;-141.50;100.00;63355.56;5098660;28;20200;-80
2022/05/18 07:56:11;;;;;;;7.78;2.40;;;;;;;-141.50;100.00;63355.56;5085889;28;20076;-77
2022/05/18 07:58:37;;;;;;;5.25;2.22;;;;;;;-141.50;100.00;63355.56;5102856;28;20052;-79
2022/05/18 08:01:07;;;;;;;9.00;2.55;;;;;;;-141.50;100.00;63355.56;5081015;28;20048;-78
2022/05/18 08:03:34;;;;;;;6.97;2.10;;;;;;;-141.50;100.00;63355.56;5098410;28;20095;-78
2022/05/18 08:06:02;;;;;;;5.55;2.42;;;;;;;-141.50;100.00;63355.56;5098502;28;20052;-77
2022/05/18 08:08:29;;;;;;;10.85;2.35;;;;;;;-141.50;100.00;63355.56;5077263;28;20052;-79
2022/05/18 08:16:26;;;;;;;4.60;2.20;;;;;;;-141.50;100.00;63355.56;5099945;28;20057;-76
2022/05/18 08:18:52;;;;;;;7.25;2.00;;;;;;;-141.50;100.00;63355.56;5084990;28;20139;-79
2022/05/18 08:21:19;;;;;;;5.90;2.63;;;;;;;-141.50;100.00;63355.56;5085300;28;20082;-77
2022/05/18 08:23:46;;;;;;;9.10;2.60;;;;;;;-141.50;100.00;63355.56;5083517;28;20059;-80
2022/05/18 08:26:19;;;;;;;7.57;2.70;;;;;;;-141.50;100.00;63355.56;5080813;28;20049;-79
2022/05/18 08:28:45;;;;;;;7.28;2.45;;;;;;;-141.50;100.00;63355.56;5078906;28;20476;-77
2022/05/18 08:31:12;;;;;;;6.60;2.20;;;;;;;-141.50;100.00;63355.56;5080892;28;20070;-78
2022/05/18 08:33:39;;;;;;;6.78;2.00;;;;;;;-141.50;100.00;63355.56;5078587;28;20049;-78
2022/05/18 08:36:07;;;;;;;6.50;2.55;;;;;;;-141.50;100.00;63355.56;5078913;28;20509;-77
2022/05/18 08:38:35;;;;;;;9.07;2.70;;;;;;;-141.50;100.00;63355.56;5080110;28;20520;-78
2022/05/18 08:41:07;;;;;;;5.70;2.50;;;;;;;-141.50;100.00;63355.56;5079395;28;20416;-77
2022/05/18 08:43:37;;;;;;;4.63;2.50;;;;;;;-141.50;100.00;63355.56;5060011;28;20068;-76
2022/05/18 08:46:16;;;;;;;4.85;2.55;;;;;;;-141.50;100.00;63355.56;5076264;28;20125;-79
2022/05/18 08:49:01;;;;;;;5.15;2.40;;;;;;;-141.50;100.00;63355.56;5075809;28;20044;-79
2022/05/18 08:51:47;;;;;;;8.85;2.80;;;;;;;-141.50;100.00;63355.56;5086021;28;20079;-77
2022/05/18 08:54:30;;;;;;;7.97;2.55;;;;;;;-141.50;100.00;63355.56;5079157;28;20052;-76
2022/05/18 08:57:00;;;;;;;5.55;2.40;;;;;;;-141.50;100.00;63355.56;5060040;28;20443;-77
2022/05/18 08:59:33;;;;;;;4.53;2.35;;;;;;;-141.50;100.00;63355.56;5058622;28;20290;-77
2022/05/18 09:02:08;;;;;;;5.15;2.10;;;;;;;-141.50;100.00;63355.56;5058652;28;20389;-79
2022/05/18 09:04:52;;;;;;;7.63;2.05;;;;;;;-141.50;100.00;63355.56;5078028;28;20072;-77
2022/05/18 09:07:46;;;;;;;6.05;2.80;;;;;;;-141.50;100.00;63355.56;5061919;28;20080;-77
2022/05/18 09:10:29;;;;;;;4.18;2.13;;;;;;;-141.50;100.00;63355.56;5072395;28;20088;-79
2022/05/18 09:12:56;;;;;;;3.35;2.10;;;;;;;-141.50;100.00;63355.56;5057567;28;20104;-76
2022/05/18 09:15:55;;;;;;;8.55;2.47;;;;;;;-141.50;100.00;63355.56;5068971;28;20079;-76
2022/05/18 09:18:42;;;;;;;4.57;2.10;;;;;;;-141.50;100.00;63355.56;5056393;28;20461;-77
2022/05/18 09:21:15;;;;;;;6.85;2.00;;;;;;;-141.50;100.00;63355.56;5070537;28;20091;-77
2022/05/18 09:24:17;;;;;;;7.82;2.15;;;;;;;-141.50;100.00;63355.56;5089614;28;20052;-79
2022/05/18 09:26:50;;;;;;;7.65;2.25;;;;;;;-141.50;100.00;63355.56;5088984;28;20143;-77
2022/05/18 09:29:22;;;;;;;5.25;2.25;;;;;;;-141.50;100.00;63355.56;5070374;28;20456;-80
2022/05/18 09:32:16;;;;;;;4.75;2.28;;;;;;;-141.50;100.00;63355.56;5063430;28;20068;-78
2022/05/18 09:35:05;;;;;;;5.07;2.47;;;;;;;-141.50;100.00;63355.56;5062478;28;20048;-78
2022/05/18 09:37:37;;;;;;;8.05;2.33;;;;;;;-141.50;100.00;63355.56;5064466;28;20110;-76
2022/05/18 09:40:23;;;;;;;6.85;2.60;;;;;;;-141.50;100.00;63355.56;5078706;28;20139;-77
2022/05/18 09:43:28;;;;;;;;;;;;;;;-141.50;100.00;63355.56;5079088;28;20055;-79
2022/05/18 09:45:57;;;;;;;9.00;2.33;;;;;;;-141.50;100.00;63355.56;5019356;28;19947;-77
2022/05/18 09:48:34;;;;;;;7.85;2.55;;;;;;;-141.50;100.00;63355.56;4994518;28;20068;-78
2022/05/18 09:51:01;;;;;;;8.23;2.42;;;;;;;-141.50;100.00;63355.56;5050631;28;20143;-79
2022/05/18 09:53:28;;;;;;;7.57;2.72;;;;;;;-141.50;100.00;63355.56;5075697;28;20053;-79
2022/05/18 09:55:55;;;;;;;8.98;2.38;;;;;;;-141.50;100.00;63355.56;5059291;28;20048;-78
2022/05/18 09:58:42;;;;;;;5.57;2.75;;;;;;;-141.50;100.00;63355.56;5060098;28;20095;-78
2022/05/18 10:09:47;;;;;;;9.25;3.10;;;;;;;-141.50;100.00;63355.56;5080989;28;20048;-78
2022/05/18 10:12:30;;;;;;;10.32;2.80;;;;;;;-141.50;100.00;63355.56;5063898;28;20242;-77
2022/05/18 10:14:59;;;;;;;9.13;2.60;;;;;;;-141.50;100.00;63355.56;5079720;28;20310;-79
2022/05/18 10:17:44;;;;;;;6.80;2.47;;;;;;;-141.50;100.00;63355.56;5074668;28;20051;-78
2022/05/18 10:20:21;;;;;;;6.40;2.45;;;;;;;-141.50;100.00;63355.56;5099191;28;20466;-76
2022/05/18 10:22:49;;;;;;;8.25;2.72;;;;;;;-141.50;100.00;63355.56;5100006;28;20044;-78
2022/05/18 10:25:24;;;;;;;4.38;2.38;;;;;;;-141.50;100.00;63355.56;5081247;28;20048;-79
2022/05/18 10:27:51;;;;;;;11.77;2.67;;;;;;;-141.50;100.00;63355.56;5079446;28;20135;-78
2022/05/18 10:30:25;;;;;;;4.68;2.60;;;;;;;-141.50;100.00;63355.56;5103853;28;20085;-75
2022/05/18 10:33:15;;;;;;;5.78;2.60;;;;;;;-141.50;100.00;63355.56;5084512;28;20044;-77
2022/05/18 10:35:44;;;;;;;6.05;3.08;;;;;;;-141.50;100.00;63355.56;5077112;28;20119;-76
2022/05/18 10:38:24;;;;;;;7.90;2.92;;;;;;;-141.50;100.00;63355.56;5094020;28;20480;-77
2022/05/18 10:41:03;;;;;;;7.72;2.80;;;;;;;-141.50;100.00;63355.56;5076470;28;20105;-77
2022/05/18 10:43:36;;;;;;;5.28;2.42;;;;;;;-141.50;100.00;63355.56;5095492;28;20052;-75
2022/05/18 10:46:27;;;;;;;7.82;2.80;;;;;;;-141.50;100.00;63355.56;5098267;28;20055;-77
2022/05/18 10:49:05;;;;;;;7.88;2.90;;;;;;;-141.50;100.00;63355.56;5103104;28;20055;-76
2022/05/18 10:51:41;;;;;;;5.95;3.05;;;;;;;-141.50;100.00;63355.56;5083158;28;20148;-78
2022/05/18 10:54:28;;;;;;;6.88;3.13;;;;;;;-141.50;100.00;63355.56;5096298;28;20113;-77
2022/05/18 10:57:18;;;;;;;6.10;3.00;;;;;;;-141.50;100.00;63355.56;5092086;28;20095;-76
2022/05/18 10:59:55;;;;;;;6.60;2.78;;;;;;;-141.50;100.00;63355.56;5080770;28;20336;-79
2022/05/18 11:02:24;;;;;;;6.47;2.53;;;;;;;-141.50;100.00;63355.56;5100883;28;20520;-77
2022/05/18 11:05:16;;;;;;;11.20;3.10;;;;;;;-141.50;100.00;63355.56;5083458;28;20044;-78
2022/05/18 11:07:43;;;;;;;5.22;2.80;;;;;;;-141.50;100.00;63355.56;5080178;28;20055;-78
2022/05/18 11:10:11;;;;;;;5.18;2.80;;;;;;;-141.50;100.00;63355.56;5097381;28;20052;-78
2022/05/18 11:12:52;;;;;;;7.22;3.10;;;;;;;-141.50;100.00;63355.56;5097929;28;20101;-78
2022/05/18 11:15:41;;;;;;;8.98;3.67;;;;;;;-141.50;100.00;63355.56;5098777;28;20052;-79
2022/05/18 11:18:08;;;;;;;;;;;;;;;-141.50;100.00;63355.56;5075220;28;20060;-76
2022/05/18 11:20:58;;;;;;;8.13;3.13;;;;;;;-141.50;100.00;63355.56;5074364;28;19920;-77
2022/05/18 11:23:52;;;;;;;7.63;3.00;;;;;;;-141.50;100.00;63355.56;5059485;28;20052;-76
2022/05/18 11:26:35;;;;;;;5.20;2.63;;;;;;;-141.50;100.00;63355.56;5059067;28;20072;-78
2022/05/18 11:29:25;;;;;;;8.35;3.08;;;;;;;-141.50;100.00;63355.56;5061984;28;20139;-77
2022/05/18 11:32:06;;;;;;;7.88;3.17;;;;;;;-141.50;100.00;63355.56;5073086;28;20499;-74
2022/05/18 11:34:33;;;;;;;5.85;3.30;;;;;;;-141.50;100.00;63355.56;5073201;28;20423;-76
2022/05/18 11:37:21;;;;;;;7.22;3.33;;;;;;;-141.50;100.00;63355.56;5058169;28;20048;-76
2022/05/18 11:39:58;;;;;;;6.65;3.25;;;;;;;-141.50;100.00;63355.56;5059848;28;20052;-76